Time;durP1;ratioP1;P1;durP2;ratioP2;P2;SDS_P1;SDS_P2;PMS_P1;PMS_P2;Temp;Humidity;BMP_temperature;BMP_pressure;BME280_temperature;BME280_humidity;BME280_pressure;Samples;Min_cycle;Max_cycle;Signal;HPM_P1;HPM_P2
2021/01/02 00:00:51;;;;;;;0.20;0.10;;;;;;;2.13;100.00;99869.94;4993584;28;20480;-52
2021/01/02 00:03:48;;;;;;;0.20;0.10;;;;;;;2.06;100.00;99874.31;4998847;28;20461;-51
2021/01/02 00:06:27;;;;;;;0.20;0.10;;;;;;;1.99;100.00;99883.91;4982167;28;20838;-51
2021/01/02 00:09:16;;;;;;;0.20;0.10;;;;;;;1.85;100.00;99879.56;4995332;28;20462;-51
2021/01/02 00:12:16;;;;;;;0.30;0.20;;;;;;;1.78;100.00;99874.34;4995374;28;20476;-51
2021/01/02 00:14:58;;;;;;;0.20;0.10;;;;;;;1.81;100.00;99875.19;4995708;28;20442;-51
2021/01/02 00:18:04;;;;;;;0.20;0.10;;;;;;;1.67;100.00;99873.44;4995442;28;21306;-51
2021/01/02 00:20:41;;;;;;;0.20;0.10;;;;;;;1.61;100.00;99881.28;5007514;28;20480;-51
2021/01/02 00:23:52;;;;;;;0.40;0.40;;;;;;;1.59;100.00;99884.78;5003235;28;20441;-51
2021/01/02 00:26:36;;;;;;;0.20;0.10;;;;;;;1.33;100.00;99888.22;4994935;28;20955;-51
2021/01/02 00:29:04;;;;;;;0.20;0.10;;;;;;;1.23;100.00;99893.44;4997987;28;20453;-51
2021/01/02 00:32:00;;;;;;;0.20;0.10;;;;;;;1.64;100.00;99891.75;4994682;28;20501;-51
2021/01/02 00:35:08;;;;;;;0.20;0.10;;;;;;;1.55;100.00;99893.53;4998688;28;20517;-51
2021/01/02 00:37:43;;;;;;;0.20;0.10;;;;;;;1.94;100.00;99895.28;4994512;28;20488;-50
2021/01/02 00:40:15;;;;;;;0.20;0.10;;;;;;;1.90;100.00;99888.28;4994301;28;20480;-51
2021/01/02 00:42:54;;;;;;;0.20;0.10;;;;;;;1.90;100.00;99891.78;4994407;28;20456;-51
2021/01/02 00:45:24;;;;;;;0.20;0.10;;;;;;;2.04;100.00;99894.38;4994482;28;20818;-51
2021/01/02 00:48:08;;;;;;;0.20;0.10;;;;;;;1.92;100.00;99894.38;4994177;28;20449;-51
2021/01/02 00:50:44;;;;;;;2.80;1.70;;;;;;;1.84;100.00;99898.78;4994113;28;20589;-50
2021/01/02 00:53:38;;;;;;;0.20;0.20;;;;;;;1.76;100.00;99889.16;4994283;28;20450;-51
2021/01/02 00:57:07;;;;;;;0.20;0.20;;;;;;;1.79;100.00;99893.53;4994202;28;20965;-51
2021/01/02 01:00:06;;;;;;;0.20;0.10;;;;;;;1.76;100.00;99901.38;4949266;28;20999;-51
2021/01/02 01:03:04;;;;;;;0.20;0.10;;;;;;;1.73;100.00;99898.75;4990518;28;20454;-51
2021/01/02 01:05:39;;;;;;;0.20;0.10;;;;;;;1.43;100.00;99907.47;4993820;28;20938;-51
2021/01/02 01:08:08;;;;;;;0.20;0.10;;;;;;;1.50;100.00;99903.97;4994417;28;20519;-51
2021/01/02 01:10:36;;;;;;;0.20;0.10;;;;;;;1.59;100.00;99903.13;4994046;28;20492;-51
2021/01/02 01:13:12;;;;;;;0.20;0.10;;;;;;;1.27;100.00;99911.78;4993881;28;20453;-51
2021/01/02 01:15:40;;;;;;;0.30;0.10;;;;;;;1.29;100.00;99904.81;4993853;28;20507;-51
2021/01/02 01:18:28;;;;;;;0.30;0.20;;;;;;;1.28;100.00;99910.03;4992576;28;20450;-51
2021/01/02 01:20:59;;;;;;;0.20;0.20;;;;;;;1.29;100.00;99917.03;5001561;28;20881;-48
2021/01/02 01:23:50;;;;;;;0.20;0.10;;;;;;;1.25;100.00;99913.53;4998440;28;20446;-48
2021/01/02 01:26:35;;;;;;;0.20;0.10;;;;;;;1.42;100.00;99916.19;4992618;28;20457;-48
2021/01/02 01:29:02;;;;;;;0.70;0.67;;;;;;;1.22;100.00;99923.97;4982009;28;20456;-48
2021/01/02 01:31:42;;;;;;;0.20;0.10;;;;;;;1.29;100.00;99928.38;4993416;28;20538;-50
2021/01/02 01:34:11;;;;;;;0.20;0.10;;;;;;;1.19;100.00;99924.84;4993698;28;20503;-48
2021/01/02 01:36:42;;;;;;;0.20;0.10;;;;;;;1.38;100.00;99925.78;4993454;28;20450;-48
2021/01/02 01:39:12;;;;;;;0.20;0.10;;;;;;;1.48;100.00;99927.53;4993435;28;20831;-48
2021/01/02 01:41:44;;;;;;;0.20;0.10;;;;;;;1.54;100.00;99928.44;5002972;28;20446;-48
2021/01/02 01:44:13;;;;;;;0.20;0.10;;;;;;;1.49;100.00;99934.50;5000550;28;20935;-48
2021/01/02 01:46:50;;;;;;;0.20;0.10;;;;;;;1.52;100.00;99933.69;4993475;28;20957;-49
2021/01/02 01:49:32;;;;;;;0.20;0.10;;;;;;;1.51;100.00;99937.16;4993574;28;20453;-48
2021/01/02 01:51:58;;;;;;;0.30;0.10;;;;;;;1.59;100.00;99931.94;4993441;28;20472;-49
2021/01/02 01:55:04;;;;;;;0.20;0.10;;;;;;;1.61;100.00;99938.03;4993191;28;20875;-49
2021/01/02 01:57:37;;;;;;;0.30;0.20;;;;;;;1.64;100.00;99938.03;4992561;28;20453;-48
2021/01/02 02:00:11;;;;;;;0.20;0.10;;;;;;;1.63;100.00;99931.91;4993321;28;20473;-48
2021/01/02 02:02:46;;;;;;;0.20;0.10;;;;;;;1.59;100.00;99931.94;4993826;28;20821;-48
2021/01/02 02:05:13;;;;;;;0.20;0.10;;;;;;;1.60;100.00;99933.66;4992108;28;20445;-49
2021/01/02 02:08:05;;;;;;;0.30;0.10;;;;;;;1.66;100.00;99928.47;4993142;28;20531;-48
2021/01/02 02:10:31;;;;;;;0.20;0.10;;;;;;;1.59;100.00;99931.94;4992804;28;20493;-48
2021/01/02 02:13:15;;;;;;;0.20;0.10;;;;;;;1.67;100.00;99927.59;4993088;28;20449;-49
2021/01/02 02:15:47;;;;;;;0.20;0.10;;;;;;;1.67;100.00;99931.06;4993114;28;20454;-48
2021/01/02 02:18:25;;;;;;;0.20;0.10;;;;;;;1.75;100.00;99926.69;4992207;28;20454;-48
2021/01/02 02:20:53;;;;;;;0.20;0.10;;;;;;;2.19;100.00;99925.84;4991445;28;20981;-48
2021/01/02 02:23:27;;;;;;;0.20;0.10;;;;;;;2.08;100.00;99923.25;4998627;28;20950;-49
2021/01/02 02:26:07;;;;;;;0.20;0.10;;;;;;;1.97;100.00;99921.50;4992104;28;20465;-48
2021/01/02 02:29:03;;;;;;;0.20;0.10;;;;;;;1.93;100.00;99928.50;4993650;28;20500;-48
2021/01/02 02:31:32;;;;;;;0.47;0.47;;;;;;;1.78;100.00;99931.06;4996890;28;20497;-48
2021/01/02 02:34:01;;;;;;;0.20;0.10;;;;;;;1.90;100.00;99924.97;5001900;28;20477;-49
2021/01/02 02:36:32;;;;;;;0.20;0.20;;;;;;;1.87;100.00;99925.84;4996715;28;20939;-48
2021/01/02 02:39:00;;;;;;;0.20;0.10;;;;;;;2.02;100.00;99917.97;4996651;28;20465;-50
2021/01/02 02:41:30;;;;;;;0.20;0.13;;;;;;;1.84;100.00;99922.34;4996799;28;20841;-48
2021/01/02 02:44:00;;;;;;;0.30;0.10;;;;;;;1.89;100.00;99923.22;4996705;28;20454;-48
2021/01/02 02:46:32;;;;;;;0.20;0.10;;;;;;;1.95;100.00;99924.13;4997897;28;20449;-49
2021/01/02 02:49:02;;;;;;;0.33;0.33;;;;;;;1.96;100.00;99931.09;5006186;28;20454;-49
2021/01/02 02:51:35;;;;;;;0.20;0.10;;;;;;;1.97;100.00;99926.72;4996646;28;20870;-48
2021/01/02 02:54:01;;;;;;;0.20;0.10;;;;;;;2.08;100.00;99923.25;4996862;28;20453;-48
2021/01/02 02:56:27;;;;;;;0.20;0.10;;;;;;;2.02;100.00;99930.22;5009646;28;20457;-48
2021/01/02 02:58:53;;;;;;;0.20;0.10;;;;;;;2.07;100.00;99929.34;4996408;28;20817;-48
2021/01/02 03:01:19;;;;;;;0.20;0.10;;;;;;;1.98;100.00;99929.34;4999286;28;20567;-49
2021/01/02 03:03:46;;;;;;;0.37;0.37;;;;;;;2.04;100.00;99928.47;4995990;28;20970;-48
2021/01/02 03:06:12;;;;;;;0.20;0.10;;;;;;;2.07;100.00;99934.59;4995857;28;20476;-48
2021/01/02 03:08:39;;;;;;;0.20;0.10;;;;;;;2.05;100.00;99935.44;4996195;28;20460;-48
2021/01/02 03:11:05;;;;;;;0.20;0.20;;;;;;;1.93;100.00;99933.72;4996740;28;21045;-49
2021/01/02 03:13:54;;;;;;;0.20;0.20;;;;;;;2.06;100.00;99927.63;4995043;28;20459;-48
2021/01/02 03:16:23;;;;;;;0.20;0.10;;;;;;;2.02;100.00;99935.47;5004868;28;20465;-48
2021/01/02 03:18:50;;;;;;;0.20;0.10;;;;;;;1.94;100.00;99932.84;4995886;28;20449;-49
2021/01/02 03:21:16;;;;;;;0.20;0.10;;;;;;;2.06;100.00;99938.09;5006127;28;20467;-50
2021/01/02 03:23:47;;;;;;;0.20;0.10;;;;;;;2.06;100.00;99942.47;4998527;28;20457;-48
2021/01/02 03:26:14;;;;;;;0.33;0.33;;;;;;;2.00;100.00;99942.44;4995755;28;20454;-49
2021/01/02 03:28:48;;;;;;;0.20;0.10;;;;;;;2.00;100.00;99932.84;4995120;28;20520;-48
2021/01/02 03:31:15;;;;;;;0.20;0.10;;;;;;;1.99;100.00;99943.31;4995587;28;20489;-49
2021/01/02 03:33:41;;;;;;;0.20;0.10;;;;;;;2.09;100.00;99945.09;4995762;28;20831;-48
2021/01/02 03:36:07;;;;;;;0.30;0.20;;;;;;;2.04;100.00;99945.06;4995711;28;20472;-49
2021/01/02 03:38:35;;;;;;;0.20;0.10;;;;;;;2.10;100.00;99944.22;4995453;28;20453;-48
2021/01/02 03:41:01;;;;;;;0.30;0.10;;;;;;;2.07;100.00;99939.84;4994115;28;20528;-49
2021/01/02 03:43:28;;;;;;;0.20;0.10;;;;;;;2.24;100.00;99944.19;5000692;28;20469;-48
2021/01/02 03:45:55;;;;;;;0.20;0.10;;;;;;;2.19;100.00;99946.81;4995215;28;20973;-48
2021/01/02 03:48:21;;;;;;;0.20;0.10;;;;;;;2.20;100.00;99943.34;4995498;28;20454;-48
2021/01/02 03:50:48;;;;;;;0.20;0.10;;;;;;;2.10;100.00;99943.34;4995275;28;20500;-48
2021/01/02 03:53:14;;;;;;;0.20;0.10;;;;;;;2.03;100.00;99937.19;4995179;28;20449;-49
2021/01/02 03:55:40;;;;;;;0.20;0.10;;;;;;;2.07;100.00;99941.59;4995065;28;20855;-48
2021/01/02 03:58:07;;;;;;;0.30;0.20;;;;;;;2.13;100.00;99944.19;5005530;28;20461;-48
2021/01/02 04:00:33;;;;;;;0.20;0.10;;;;;;;2.50;100.00;99937.19;4994782;28;20532;-48
2021/01/02 04:03:00;;;;;;;0.23;0.13;;;;;;;2.27;100.00;99942.44;4995090;28;20507;-48
2021/01/02 04:05:26;;;;;;;0.20;0.10;;;;;;;2.21;100.00;99950.31;4994914;28;20541;-48
2021/01/02 04:07:52;;;;;;;3.03;2.20;;;;;;;2.10;100.00;99948.56;4994986;28;20457;-48
2021/01/02 04:10:18;;;;;;;0.20;0.10;;;;;;;2.13;100.00;99952.06;4997251;28;20489;-48
2021/01/02 04:12:44;;;;;;;0.20;0.10;;;;;;;2.10;100.00;99954.69;4994783;28;20456;-50
2021/01/02 04:15:11;;;;;;;0.20;0.10;;;;;;;2.21;100.00;99947.72;4994724;28;20453;-49
2021/01/02 04:17:40;;;;;;;0.20;0.10;;;;;;;2.23;100.00;99948.56;4994895;28;20552;-48
2021/01/02 04:20:06;;;;;;;0.20;0.10;;;;;;;2.28;100.00;99945.94;4995372;28;20852;-48
2021/01/02 04:22:32;;;;;;;0.40;0.40;;;;;;;2.24;100.00;99942.44;5006844;28;20458;-48
2021/01/02 04:25:00;;;;;;;0.20;0.10;;;;;;;2.24;100.00;99941.59;5001853;28;20464;-48
2021/01/02 04:27:26;;;;;;;2.07;2.03;;;;;;;2.38;100.00;99943.31;4994545;28;20453;-48
2021/01/02 04:29:53;;;;;;;0.20;0.17;;;;;;;2.30;100.00;99952.06;4994024;28;20470;-49
2021/01/02 04:32:19;;;;;;;0.20;0.10;;;;;;;2.27;100.00;99947.69;4994511;28;20465;-49
2021/01/02 04:34:45;;;;;;;0.20;0.10;;;;;;;2.28;100.00;99951.19;4994731;28;20453;-48
2021/01/02 04:37:11;;;;;;;0.20;0.10;;;;;;;2.23;100.00;99951.19;4994746;28;20456;-48
2021/01/02 04:39:37;;;;;;;0.20;0.10;;;;;;;2.24;100.00;99952.06;4993585;28;20497;-48
2021/01/02 04:42:03;;;;;;;0.20;0.10;;;;;;;2.21;100.00;99952.06;4994386;28;20454;-51
2021/01/02 04:44:31;;;;;;;0.20;0.10;;;;;;;2.16;100.00;99954.69;4994126;28;20450;-48
2021/01/02 04:47:00;;;;;;;0.20;0.20;;;;;;;2.16;100.00;99953.81;4993425;28;20449;-48
2021/01/02 04:49:27;;;;;;;0.20;0.10;;;;;;;2.22;100.00;99953.81;4994272;28;20476;-48
2021/01/02 04:52:01;;;;;;;0.20;0.10;;;;;;;2.16;100.00;99943.31;4994061;28;20918;-48
2021/01/02 04:54:27;;;;;;;0.20;0.10;;;;;;;2.15;100.00;99947.69;4997334;28;20943;-48
2021/01/02 04:56:54;;;;;;;0.20;0.10;;;;;;;2.14;100.00;99942.44;4993899;28;20457;-48
2021/01/02 04:59:25;;;;;;;0.20;0.10;;;;;;;2.16;100.00;99938.06;4993666;28;20460;-47
2021/01/02 05:01:53;;;;;;;0.20;0.10;;;;;;;2.19;100.00;99941.56;4993984;28;20955;-48
2021/01/02 05:04:21;;;;;;;0.20;0.10;;;;;;;2.21;100.00;99949.47;4993744;28;20450;-48
2021/01/02 05:06:47;;;;;;;0.20;0.10;;;;;;;2.32;100.00;99945.94;5002154;28;20514;-48
2021/01/02 05:09:14;;;;;;;0.20;0.10;;;;;;;2.26;100.00;99945.06;4995359;28;20829;-48
2021/01/02 05:11:40;;;;;;;0.20;0.10;;;;;;;2.24;100.00;99944.19;4994274;28;20544;-49
2021/01/02 05:14:07;;;;;;;0.20;0.10;;;;;;;2.32;100.00;99945.06;4995530;28;20460;-48
2021/01/02 05:19:06;;;;;;;0.20;0.10;;;;;;;2.31;100.00;99946.81;4993745;28;20454;-48
2021/01/02 05:21:35;;;;;;;0.20;0.10;;;;;;;2.24;100.00;99958.19;5006115;28;20461;-48
2021/01/02 05:24:01;;;;;;;0.20;0.10;;;;;;;2.14;100.00;99955.56;4992613;28;20946;-49
2021/01/02 05:26:28;;;;;;;0.20;0.10;;;;;;;2.05;100.00;99951.19;4998627;28;20458;-49
2021/01/02 05:29:14;;;;;;;0.20;0.10;;;;;;;2.14;100.00;99958.19;5001805;28;20465;-48
2021/01/02 05:31:46;;;;;;;0.20;0.10;;;;;;;2.24;100.00;99959.94;4993159;28;20840;-48
2021/01/02 05:34:13;;;;;;;0.20;0.10;;;;;;;2.24;100.00;99954.69;4993491;28;20452;-48
2021/01/02 05:36:40;;;;;;;0.20;0.10;;;;;;;2.28;100.00;99957.28;4993283;28;20453;-47
2021/01/02 05:39:09;;;;;;;0.20;0.10;;;;;;;2.61;100.00;99959.03;5001288;28;20833;-48
2021/01/02 05:42:05;;;;;;;0.20;0.10;;;;;;;2.48;100.00;99952.06;4995266;28;20472;-48
2021/01/02 05:44:37;;;;;;;0.20;0.10;;;;;;;2.53;100.00;99949.41;4980776;28;20469;-48
2021/01/02 05:47:04;;;;;;;0.20;0.10;;;;;;;2.50;100.00;99965.16;4993333;28;20453;-48
2021/01/02 05:49:31;;;;;;;0.20;0.10;;;;;;;2.27;100.00;99965.16;4995897;28;20507;-48
2021/01/02 05:51:59;;;;;;;0.20;0.10;;;;;;;2.36;100.00;99966.06;5002612;28;20493;-48
2021/01/02 05:54:29;;;;;;;0.20;0.10;;;;;;;2.58;100.00;99966.88;4996607;28;21018;-48
2021/01/02 05:56:59;;;;;;;0.50;0.50;;;;;;;2.51;100.00;99966.91;4992081;28;20529;-49
2021/01/02 05:59:37;;;;;;;0.20;0.10;;;;;;;2.51;100.00;99969.53;4993298;28;20449;-48
2021/01/02 06:02:24;;;;;;;0.20;0.10;;;;;;;2.32;100.00;99961.66;4996517;28;20480;-48
2021/01/02 06:05:07;;;;;;;0.20;0.10;;;;;;;2.24;100.00;99968.69;4995828;28;20460;-48
2021/01/02 06:07:36;;;;;;;0.20;0.10;;;;;;;2.41;100.00;99970.41;5005534;28;20548;-49
2021/01/02 06:10:07;;;;;;;0.20;0.13;;;;;;;2.60;100.00;99969.50;4996981;28;20492;-48
2021/01/02 06:12:35;;;;;;;0.20;0.10;;;;;;;2.47;100.00;99971.28;4996870;28;20453;-48
2021/01/02 06:15:10;;;;;;;0.20;0.13;;;;;;;2.23;100.00;99968.69;4997095;28;20449;-47
2021/01/02 06:17:41;;;;;;;0.20;0.10;;;;;;;2.12;100.00;99971.28;4996766;28;20942;-48
2021/01/02 06:20:13;;;;;;;0.20;0.10;;;;;;;2.13;100.00;99967.78;4998178;28;20488;-48
2021/01/02 06:22:43;;;;;;;0.20;0.10;;;;;;;2.07;100.00;99968.69;5008249;28;20492;-48
2021/01/02 06:25:11;;;;;;;0.20;0.10;;;;;;;2.10;100.00;99966.94;4996931;28;20453;-48
2021/01/02 06:27:44;;;;;;;0.20;0.10;;;;;;;2.04;100.00;99967.78;4995900;28;20453;-48
2021/01/02 06:30:20;;;;;;;0.20;0.10;;;;;;;2.21;100.00;99978.28;4998359;28;21002;-48
2021/01/02 06:32:47;;;;;;;0.30;0.10;;;;;;;2.31;100.00;99978.28;4996675;28;20507;-48
2021/01/02 06:35:21;;;;;;;0.20;0.10;;;;;;;2.10;100.00;99978.28;4995606;28;20507;-48
2021/01/02 06:37:47;;;;;;;0.20;0.10;;;;;;;2.08;100.00;99985.28;5004637;28;20460;-49
2021/01/02 06:40:28;;;;;;;0.20;0.10;;;;;;;2.05;100.00;99982.63;4996811;28;20533;-48
2021/01/02 06:42:56;;;;;;;0.20;0.10;;;;;;;1.96;100.00;99998.38;4996536;28;20448;-48
2021/01/02 06:45:34;;;;;;;0.20;0.10;;;;;;;1.99;100.00;99995.75;4996497;28;20472;-48
2021/01/02 06:48:13;;;;;;;0.20;0.20;;;;;;;1.97;100.00;99992.25;4991516;28;20504;-48
2021/01/02 06:50:40;;;;;;;0.20;0.10;;;;;;;1.96;100.00;99993.13;4987066;28;20500;-48
2021/01/02 06:53:25;;;;;;;0.20;0.10;;;;;;;2.13;100.00;99993.13;4990057;28;20853;-52
2021/01/02 06:56:13;;;;;;;0.20;0.10;;;;;;;2.31;100.00;99990.50;4986346;28;20450;-49
2021/01/02 06:58:48;;;;;;;0.20;0.10;;;;;;;2.07;100.00;99989.66;4987118;28;20438;-48
2021/01/02 07:01:17;;;;;;;0.20;0.20;;;;;;;2.05;100.00;99986.13;4992232;28;20465;-48
2021/01/02 07:03:46;;;;;;;0.20;0.10;;;;;;;2.06;100.00;99985.28;4995449;28;20814;-48
2021/01/02 07:06:21;;;;;;;0.20;0.10;;;;;;;1.96;100.00;99994.00;5000815;28;20460;-48
2021/01/02 07:08:56;;;;;;;0.20;0.10;;;;;;;1.95;100.00;99992.25;5001763;28;20518;-49
2021/01/02 07:11:31;;;;;;;0.20;0.10;;;;;;;1.97;100.00;99994.88;4995809;28;20524;-48
2021/01/02 07:14:09;;;;;;;0.20;0.10;;;;;;;1.96;100.00;99990.50;4996056;28;20449;-48
2021/01/02 07:16:45;;;;;;;0.20;0.10;;;;;;;1.98;100.00;99996.63;4995949;28;20515;-48
2021/01/02 07:19:23;;;;;;;0.20;0.10;;;;;;;2.04;100.00;100007.97;5004164;28;20472;-49
2021/01/02 07:22:10;;;;;;;0.20;0.10;;;;;;;2.02;100.00;99994.00;5009093;28;20445;-51
2021/01/02 07:24:36;;;;;;;0.20;0.10;;;;;;;1.99;100.00;100001.84;4993508;28;21359;-48
2021/01/02 07:27:05;;;;;;;0.43;0.43;;;;;;;1.90;100.00;99995.72;4994478;28;20458;-49
2021/01/02 07:29:36;;;;;;;0.20;0.10;;;;;;;1.86;100.00;100001.84;4995688;28;20817;-48
2021/01/02 07:32:07;;;;;;;0.20;0.10;;;;;;;2.04;100.00;99996.59;4995548;28;20489;-48
2021/01/02 07:34:34;;;;;;;0.20;0.10;;;;;;;1.91;100.00;99993.09;4995449;28;20453;-52
2021/01/02 07:37:03;;;;;;;0.20;0.10;;;;;;;1.87;100.00;99982.63;4996925;28;20468;-48
2021/01/02 07:39:29;;;;;;;0.20;0.10;;;;;;;2.01;100.00;99991.38;4998472;28;20970;-48
2021/01/02 07:42:00;;;;;;;0.30;0.20;;;;;;;2.02;100.00;99990.50;4998155;28;20454;-49
2021/01/02 07:44:26;;;;;;;0.20;0.10;;;;;;;2.02;100.00;100008.84;4990918;28;20857;-49
2021/01/02 07:46:52;;;;;;;0.20;0.10;;;;;;;1.69;100.00;100020.16;4995264;28;20454;-48
2021/01/02 07:49:19;;;;;;;0.20;0.10;;;;;;;1.82;100.00;100015.81;4994255;28;20532;-48
2021/01/02 07:51:48;;;;;;;0.20;0.10;;;;;;;2.03;100.00;100024.56;5001860;28;20489;-50
2021/01/02 07:54:37;;;;;;;0.20;0.10;;;;;;;2.34;100.00;100024.63;4995422;28;20442;-49
2021/01/02 07:57:06;;;;;;;0.20;0.10;;;;;;;2.09;100.00;100039.44;4995063;28;20452;-48
2021/01/02 07:59:39;;;;;;;0.20;0.10;;;;;;;2.14;100.00;100034.19;4994656;28;20458;-48
2021/01/02 08:02:25;;;;;;;0.20;0.10;;;;;;;1.92;100.00;100034.19;4995006;28;20540;-48
2021/01/02 08:04:53;;;;;;;0.20;0.10;;;;;;;2.17;100.00;100040.31;5001678;28;20464;-48
2021/01/02 08:07:19;;;;;;;0.20;0.10;;;;;;;2.33;100.00;100041.19;4998080;28;20481;-48
2021/01/02 08:09:47;;;;;;;1.87;1.80;;;;;;;2.42;100.00;100030.72;4994977;28;20469;-48
2021/01/02 08:12:15;;;;;;;0.20;0.20;;;;;;;2.23;100.00;100031.59;4994656;28;20485;-48
2021/01/02 08:14:48;;;;;;;0.20;0.10;;;;;;;2.49;100.00;100032.50;4995107;28;20474;-48
2021/01/02 08:17:19;;;;;;;1.07;1.07;;;;;;;2.50;100.00;100034.22;4994738;28;20832;-48
2021/01/02 08:19:48;;;;;;;0.20;0.10;;;;;;;2.49;100.00;100029.88;4996912;28;20485;-48
2021/01/02 08:22:37;;;;;;;0.20;0.10;;;;;;;2.42;100.00;100040.34;5007426;28;20448;-48
2021/01/02 08:25:09;;;;;;;0.20;0.10;;;;;;;2.50;100.00;100039.47;4994615;28;20453;-48
2021/01/02 08:27:35;;;;;;;0.20;0.10;;;;;;;2.44;100.00;100038.59;4993849;28;20454;-50
2021/01/02 08:30:05;;;;;;;0.20;0.20;;;;;;;2.38;100.00;100036.84;4994524;28;20477;-48
2021/01/02 08:32:35;;;;;;;0.30;0.20;;;;;;;2.50;100.00;100038.59;4999770;28;20460;-48
2021/01/02 08:35:01;;;;;;;0.20;0.10;;;;;;;2.52;100.00;100034.22;4997312;28;20504;-49
2021/01/02 08:37:28;;;;;;;0.20;0.10;;;;;;;2.40;100.00;100037.72;4985110;28;20449;-48
2021/01/02 08:40:09;;;;;;;0.20;0.10;;;;;;;2.42;100.00;100045.59;4994058;28;20489;-49
2021/01/02 08:42:36;;;;;;;0.20;0.10;;;;;;;2.41;100.00;100039.47;5001448;28;20456;-48
2021/01/02 08:45:05;;;;;;;0.30;0.20;;;;;;;2.49;100.00;100039.47;4994481;28;20457;-48
2021/01/02 08:47:31;;;;;;;0.20;0.10;;;;;;;2.54;100.00;100041.22;4994112;28;20958;-48
2021/01/02 08:50:07;;;;;;;0.20;0.10;;;;;;;2.50;100.00;100036.84;4980935;28;20482;-50
2021/01/02 08:52:35;;;;;;;0.20;0.10;;;;;;;2.46;100.00;100027.22;4998372;28;20456;-55
2021/01/02 08:55:13;;;;;;;0.20;0.10;;;;;;;2.54;100.00;100035.09;5005219;28;20870;-48
2021/01/02 08:57:55;;;;;;;0.20;0.10;;;;;;;2.68;100.00;100042.09;4997107;28;20962;-48
2021/01/02 09:00:30;;;;;;;0.20;0.10;;;;;;;2.59;100.00;100028.09;4996825;28;20555;-49
2021/01/02 09:03:03;;;;;;;0.20;0.10;;;;;;;2.61;100.00;100032.47;4993947;28;20442;-48
2021/01/02 09:05:35;;;;;;;0.20;0.10;;;;;;;2.68;100.00;100030.72;4995370;28;20473;-48
2021/01/02 09:08:06;;;;;;;1.07;0.97;;;;;;;2.66;100.00;100035.97;4993811;28;20528;-48
2021/01/02 09:10:37;;;;;;;0.20;0.10;;;;;;;2.67;100.00;100035.09;4996590;28;20556;-48
2021/01/02 09:13:16;;;;;;;0.20;0.10;;;;;;;2.74;100.00;100033.34;4996276;28;20475;-48
2021/01/02 09:16:06;;;;;;;0.20;0.10;;;;;;;2.68;100.00;100033.34;4999080;28;20539;-48
2021/01/02 09:18:32;;;;;;;0.20;0.10;;;;;;;2.93;100.00;100037.69;4999428;28;20464;-48
2021/01/02 09:21:16;;;;;;;0.20;0.10;;;;;;;2.96;100.00;100032.41;5005832;28;20476;-48
2021/01/02 09:23:56;;;;;;;0.20;0.10;;;;;;;2.91;100.00;100042.06;4993927;28;20989;-48
2021/01/02 09:26:35;;;;;;;0.20;0.10;;;;;;;3.07;100.00;100035.03;4993830;28;20449;-50
2021/01/02 09:29:13;;;;;;;0.20;0.10;;;;;;;3.03;100.00;100035.06;4997033;28;20461;-49
2021/01/02 09:31:40;;;;;;;0.20;0.20;;;;;;;3.06;100.00;100035.03;4996809;28;20513;-49
2021/01/02 09:34:06;;;;;;;0.20;0.10;;;;;;;3.09;100.00;100043.78;4996725;28;20465;-48
2021/01/02 09:36:33;;;;;;;0.20;0.10;;;;;;;3.12;100.00;100040.25;4991912;28;20464;-48
2021/01/02 09:38:59;;;;;;;0.20;0.10;;;;;;;3.43;100.00;100041.94;5004127;28;20472;-48
2021/01/02 09:41:27;;;;;;;0.20;0.10;;;;;;;3.34;100.00;100048.97;4993395;28;20987;-48
2021/01/02 09:43:55;;;;;;;0.20;0.10;;;;;;;3.30;100.00;100045.47;4993107;28;20441;-50
2021/01/02 09:46:27;;;;;;;0.20;0.10;;;;;;;3.26;100.00;100044.59;5000932;28;21053;-48
2021/01/02 09:48:56;;;;;;;0.20;0.10;;;;;;;3.25;100.00;100047.22;4993356;28;20445;-48
2021/01/02 09:51:23;;;;;;;0.20;0.10;;;;;;;3.33;100.00;100048.09;4993496;28;20500;-48
2021/01/02 09:53:51;;;;;;;0.20;0.10;;;;;;;3.27;100.00;100045.47;4993246;28;20954;-47
2021/01/02 09:56:18;;;;;;;0.20;0.10;;;;;;;3.24;100.00;100043.72;4991712;28;20955;-48
2021/01/02 09:58:45;;;;;;;0.20;0.10;;;;;;;3.58;100.00;100045.38;4999535;28;20472;-49
2021/01/02 10:01:15;;;;;;;0.20;0.20;;;;;;;3.50;100.00;100042.75;4995192;28;20469;-48
2021/01/02 10:03:41;;;;;;;0.20;0.10;;;;;;;3.51;100.00;100047.13;5001392;28;20558;-48
2021/01/02 10:06:07;;;;;;;0.20;0.10;;;;;;;3.40;100.00;100046.28;4994373;28;20450;-48
2021/01/02 10:08:33;;;;;;;0.30;0.20;;;;;;;3.55;100.00;100046.25;4993099;28;20457;-48
2021/01/02 10:11:02;;;;;;;0.20;0.10;;;;;;;3.57;100.00;100049.75;4993450;28;20861;-48
2021/01/02 10:13:28;;;;;;;0.20;0.13;;;;;;;3.53;100.00;100040.13;4993319;28;20448;-48
2021/01/02 10:15:54;;;;;;;0.20;0.10;;;;;;;3.59;100.00;100045.38;4993016;28;20461;-49
2021/01/02 10:18:20;;;;;;;0.20;0.10;;;;;;;3.77;100.00;100047.03;4994838;28;20492;-50
2021/01/02 10:20:46;;;;;;;0.20;0.10;;;;;;;3.89;100.00;100048.72;4995156;28;20476;-48
2021/01/02 10:23:12;;;;;;;0.20;0.10;;;;;;;4.07;100.00;100041.59;4993542;28;20950;-48
2021/01/02 10:25:38;;;;;;;0.30;0.20;;;;;;;3.92;100.00;100044.31;4979765;28;20446;-48
2021/01/02 10:28:04;;;;;;;0.20;0.10;;;;;;;3.74;100.00;100047.91;4992907;28;20462;-50
2021/01/02 10:30:31;;;;;;;0.20;0.20;;;;;;;4.16;100.00;100044.16;4992759;28;20885;-48
2021/01/02 10:32:57;;;;;;;0.20;0.10;;;;;;;4.16;100.00;100046.78;4999371;28;20453;-53
2021/01/02 10:35:23;;;;;;;0.20;0.20;;;;;;;4.14;100.00;100045.06;4979782;28;20464;-49
2021/01/02 10:37:49;;;;;;;0.20;0.10;;;;;;;4.11;100.00;100039.81;4992481;28;20834;-53
2021/01/02 10:40:18;;;;;;;0.20;0.10;;;;;;;4.21;100.00;100038.00;4985115;28;20547;-49
2021/01/02 10:42:44;;;;;;;0.20;0.10;;;;;;;4.34;100.00;100029.13;4992936;28;20927;-53
2021/01/02 10:45:13;;;;;;;0.20;0.10;;;;;;;4.07;100.00;100036.31;4993016;28;20442;-48
2021/01/02 10:47:39;;;;;;;0.20;0.10;;;;;;;4.41;100.00;100029.09;4992593;28;20450;-48
2021/01/02 10:50:06;;;;;;;0.20;0.10;;;;;;;4.19;100.00;100031.88;4993994;28;20472;-48
2021/01/02 10:52:33;;;;;;;0.20;0.10;;;;;;;4.26;100.00;100023.94;4995765;28;20497;-50
2021/01/02 10:54:59;;;;;;;0.20;0.10;;;;;;;4.52;100.00;100025.47;5000637;28;20461;-48
2021/01/02 10:57:27;;;;;;;0.20;0.17;;;;;;;4.24;100.00;100016.91;4995205;28;20464;-51
2021/01/02 10:59:54;;;;;;;0.20;0.10;;;;;;;4.45;100.00;100022.91;4995135;28;20495;-49
2021/01/02 11:02:22;;;;;;;0.20;0.10;;;;;;;4.41;100.00;100028.22;4994674;28;20445;-49
2021/01/02 11:04:49;;;;;;;0.20;0.10;;;;;;;4.25;100.00;100024.81;4995734;28;20947;-55
2021/01/02 11:07:15;;;;;;;0.20;0.10;;;;;;;4.26;100.00;100015.19;4995729;28;20542;-57
2021/01/02 11:09:44;;;;;;;0.20;0.10;;;;;;;4.46;100.00;100013.25;5006417;28;20637;-48
2021/01/02 11:12:11;;;;;;;0.20;0.10;;;;;;;4.55;100.00;100014.94;4996002;28;20477;-48
2021/01/02 11:14:46;;;;;;;0.63;0.63;;;;;;;4.34;100.00;100010.72;4995585;28;20441;-48
2021/01/02 11:17:12;;;;;;;0.30;0.10;;;;;;;4.61;100.00;100012.25;4995734;28;20445;-50
2021/01/02 11:19:38;;;;;;;1.80;1.17;;;;;;;4.79;100.00;100005.91;4995782;28;20492;-48
2021/01/02 11:22:05;;;;;;;0.20;0.10;;;;;;;4.59;100.00;100012.25;5006981;28;20453;-50
2021/01/02 11:24:38;;;;;;;0.20;0.20;;;;;;;4.75;100.00;100008.59;4995804;28;20456;-51
2021/01/02 11:27:05;;;;;;;0.20;0.10;;;;;;;4.76;100.00;100012.97;4995112;28;20446;-48
2021/01/02 11:29:32;;;;;;;0.20;0.20;;;;;;;4.79;100.00;100000.66;4995031;28;20457;-48
2021/01/02 11:31:59;;;;;;;0.20;0.10;;;;;;;4.99;100.00;100003.97;4995200;28;21080;-47
2021/01/02 11:34:26;;;;;;;0.20;0.20;;;;;;;4.85;100.00;100000.63;4994968;28;20456;-47
2021/01/02 11:36:58;;;;;;;0.20;0.20;;;;;;;4.86;100.00;99997.97;5001690;28;20468;-47
2021/01/02 11:39:25;;;;;;;0.20;0.10;;;;;;;4.73;100.00;99997.22;4995083;28;20449;-51
2021/01/02 11:41:52;;;;;;;0.20;0.10;;;;;;;4.86;100.00;99992.69;4994801;28;20471;-47
2021/01/02 11:44:21;;;;;;;0.20;0.10;;;;;;;4.95;100.00;99981.19;4995041;28;20449;-47
2021/01/02 11:46:50;;;;;;;0.20;0.10;;;;;;;4.72;100.00;99984.94;4994978;28;20951;-47
2021/01/02 11:49:20;;;;;;;0.30;0.20;;;;;;;4.69;100.00;99979.69;4993774;28;20480;-48
2021/01/02 11:51:51;;;;;;;0.20;0.10;;;;;;;4.62;100.00;99991.16;4994840;28;20547;-48
2021/01/02 11:54:17;;;;;;;0.20;0.13;;;;;;;4.84;100.00;99980.44;4995113;28;20445;-47
2021/01/02 11:56:44;;;;;;;0.20;0.20;;;;;;;4.80;100.00;99987.50;4994499;28;20445;-47